sensor_id;sensor_type;location;lat;lon;timestamp;pressure;altitude;pressure_sealevel;temperature;humidity
64844;BME280;51310;52.198;5.422;2023-03-25T00:02:15;99830.03;;;8.56;100.00
64844;BME280;51310;52.198;5.422;2023-03-25T00:04:41;99830.91;;;8.57;100.00
64844;BME280;51310;52.198;5.422;2023-03-25T00:07:07;99834.25;;;8.56;100.00
64844;BME280;51310;52.198;5.422;2023-03-25T00:09:33;99830.91;;;8.57;100.00
64844;BME280;51310;52.198;5.422;2023-03-25T00:11:58;99828.09;;;8.54;100.00
64844;BME280;51310;52.198;5.422;2023-03-25T00:14:24;99834.75;;;8.52;100.00
64844;BME280;51310;52.198;5.422;2023-03-25T00:16:50;99826.91;;;8.50;100.00
64844;BME280;51310;52.198;5.422;2023-03-25T00:19:19;99824.09;;;8.47;100.00
64844;BME280;51310;52.198;5.422;2023-03-25T00:21:47;99822.16;;;8.45;100.00
64844;BME280;51310;52.198;5.422;2023-03-25T00:24:16;99835.09;;;8.46;100.00
64844;BME280;51310;52.198;5.422;2023-03-25T00:26:44;99827.31;;;8.45;100.00
64844;BME280;51310;52.198;5.422;2023-03-25T00:29:11;99822.16;;;8.45;100.00
64844;BME280;51310;52.198;5.422;2023-03-25T00:31:38;99839.09;;;8.43;100.00
64844;BME280;51310;52.198;5.422;2023-03-25T00:34:04;99834.84;;;8.43;100.00
64844;BME280;51310;52.198;5.422;2023-03-25T00:36:30;99840.28;;;8.37;100.00
64844;BME280;51310;52.198;5.422;2023-03-25T00:38:55;99832.13;;;8.41;100.00
64844;BME280;51310;52.198;5.422;2023-03-25T00:41:24;99827.47;;;8.37;100.00
64844;BME280;51310;52.198;5.422;2023-03-25T00:44:00;99832.75;;;8.39;100.00
64844;BME280;51310;52.198;5.422;2023-03-25T00:46:29;99833.63;;;8.39;100.00
64844;BME280;51310;52.198;5.422;2023-03-25T00:48:57;99828.50;;;8.39;100.00
64844;BME280;51310;52.198;5.422;2023-03-25T00:51:25;99831.84;;;8.38;100.00
64844;BME280;51310;52.198;5.422;2023-03-25T00:53:57;99827.78;;;8.40;100.00
64844;BME280;51310;52.198;5.422;2023-03-25T00:56:30;99831.84;;;8.38;100.00
64844;BME280;51310;52.198;5.422;2023-03-25T00:58:56;99829.13;;;8.37;100.00
64844;BME280;51310;52.198;5.422;2023-03-25T01:01:26;99826.72;;;8.38;100.00
64844;BME280;51310;52.198;5.422;2023-03-25T01:03:55;99830.34;;;8.40;100.00
64844;BME280;51310;52.198;5.422;2023-03-25T01:06:32;99819.78;;;8.37;100.00
64844;BME280;51310;52.198;5.422;2023-03-25T01:09:02;99810.41;;;8.38;100.00
64844;BME280;51310;52.198;5.422;2023-03-25T01:11:32;99810.41;;;8.38;100.00
64844;BME280;51310;52.198;5.422;2023-03-25T01:14:06;99813.75;;;8.37;100.00
64844;BME280;51310;52.198;5.422;2023-03-25T01:16:32;99820.56;;;8.36;100.00
64844;BME280;51310;52.198;5.422;2023-03-25T01:18:58;99823.13;;;8.36;100.00
64844;BME280;51310;52.198;5.422;2023-03-25T01:21:24;99811.03;;;8.35;100.00
64844;BME280;51310;52.198;5.422;2023-03-25T01:23:49;99829.13;;;8.37;100.00
64844;BME280;51310;52.198;5.422;2023-03-25T01:26:16;99822.47;;;8.39;100.00
64844;BME280;51310;52.198;5.422;2023-03-25T01:28:43;99819.78;;;8.37;100.00
64844;BME280;51310;52.198;5.422;2023-03-25T01:31:14;99814.53;;;8.36;100.00
64844;BME280;51310;52.198;5.422;2023-03-25T01:33:40;99823.75;;;8.34;100.00
64844;BME280;51310;52.198;5.422;2023-03-25T01:36:07;99821.78;;;8.31;100.00
64844;BME280;51310;52.198;5.422;2023-03-25T01:38:38;99826.16;;;8.32;100.00
64844;BME280;51310;52.198;5.422;2023-03-25T01:41:06;99813.69;;;8.27;100.00
64844;BME280;51310;52.198;5.422;2023-03-25T01:43:33;99816.16;;;8.25;100.00
64844;BME280;51310;52.198;5.422;2023-03-25T01:45:59;99812.66;;;8.25;100.00
64844;BME280;51310;52.198;5.422;2023-03-25T01:48:34;99818.72;;;8.06;100.00
64844;BME280;51310;52.198;5.422;2023-03-25T01:51:13;99816.56;;;7.92;100.00
64844;BME280;51310;52.198;5.422;2023-03-25T01:53:43;99820.25;;;7.85;100.00
64844;BME280;51310;52.198;5.422;2023-03-25T01:56:15;99817.69;;;7.85;100.00
64844;BME280;51310;52.198;5.422;2023-03-25T01:58:43;99815.75;;;7.83;100.00
64844;BME280;51310;52.198;5.422;2023-03-25T02:01:11;99812.63;;;7.76;100.00
64844;BME280;51310;52.198;5.422;2023-03-25T02:03:40;99820.44;;;7.78;100.00
64844;BME280;51310;52.198;5.422;2023-03-25T02:06:19;99826.94;;;7.74;100.00
64844;BME280;51310;52.198;5.422;2023-03-25T02:08:51;99818.84;;;7.70;100.00
64844;BME280;51310;52.198;5.422;2023-03-25T02:11:19;99821.63;;;7.63;100.00
64844;BME280;51310;52.198;5.422;2023-03-25T02:13:45;99813.50;;;7.58;100.00
64844;BME280;51310;52.198;5.422;2023-03-25T02:16:36;99814.69;;;7.62;100.00
64844;BME280;51310;52.198;5.422;2023-03-25T02:19:47;99808.81;;;7.63;100.00
64844;BME280;51310;52.198;5.422;2023-03-25T02:32:40;99809.78;;;7.73;100.00
64844;BME280;51310;52.198;5.422;2023-03-25T02:38:46;99808.47;;;7.68;100.00
64844;BME280;51310;52.198;5.422;2023-03-25T02:46:54;99802.19;;;7.65;100.00
64844;BME280;51310;52.198;5.422;2023-03-25T02:49:30;99805.63;;;7.65;100.00
64844;BME280;51310;52.198;5.422;2023-03-25T02:52:11;99803.69;;;7.63;100.00
64844;BME280;51310;52.198;5.422;2023-03-25T02:54:41;99796.91;;;7.63;100.00
64844;BME280;51310;52.198;5.422;2023-03-25T02:57:14;99799.16;;;7.60;100.00
64844;BME280;51310;52.198;5.422;2023-03-25T02:59:44;99791.63;;;7.62;100.00
64844;BME280;51310;52.198;5.422;2023-03-25T03:02:11;99785.00;;;7.64;100.00
64844;BME280;51310;52.198;5.422;2023-03-25T03:04:49;99795.88;;;7.61;100.00
64844;BME280;51310;52.198;5.422;2023-03-25T03:07:29;99781.53;;;7.63;100.00
64844;BME280;51310;52.198;5.422;2023-03-25T03:10:34;99776.84;;;7.68;100.00
64844;BME280;51310;52.198;5.422;2023-03-25T03:18:42;99787.72;;;7.65;100.00
64844;BME280;51310;52.198;5.422;2023-03-25T03:21:27;99796.19;;;7.55;100.00
64844;BME280;51310;52.198;5.422;2023-03-25T03:24:01;99782.22;;;7.52;100.00
64844;BME280;51310;52.198;5.422;2023-03-25T03:27:03;99781.19;;;7.50;100.00
64844;BME280;51310;52.198;5.422;2023-03-25T03:29:46;99790.38;;;7.48;100.00
64844;BME280;51310;52.198;5.422;2023-03-25T03:32:21;99784.34;;;7.47;100.00
64844;BME280;51310;52.198;5.422;2023-03-25T03:34:55;99790.72;;;7.42;100.00
64844;BME280;51310;52.198;5.422;2023-03-25T03:37:35;99790.16;;;7.36;100.00
64844;BME280;51310;52.198;5.422;2023-03-25T03:40:10;99790.16;;;7.36;100.00
64844;BME280;51310;52.198;5.422;2023-03-25T03:45:29;99790.56;;;7.40;100.00
64844;BME280;51310;52.198;5.422;2023-03-25T03:48:00;99782.88;;;7.40;100.00
64844;BME280;51310;52.198;5.422;2023-03-25T03:50:38;99787.25;;;7.42;100.00
64844;BME280;51310;52.198;5.422;2023-03-25T03:53:25;99774.72;;;7.45;100.00
64844;BME280;51310;52.198;5.422;2023-03-25T03:58:35;99773.09;;;7.45;100.00
64844;BME280;51310;52.198;5.422;2023-03-25T04:01:25;99776.66;;;7.47;100.00
64844;BME280;51310;52.198;5.422;2023-03-25T04:04:21;99772.59;;;7.49;100.00
64844;BME280;51310;52.198;5.422;2023-03-25T04:07:01;99767.34;;;7.48;100.00
64844;BME280;51310;52.198;5.422;2023-03-25T04:10:01;99778.47;;;7.48;100.00
64844;BME280;51310;52.198;5.422;2023-03-25T04:12:36;99789.75;;;7.50;100.00
64844;BME280;51310;52.198;5.422;2023-03-25T04:15:05;99778.38;;;7.38;100.00
64844;BME280;51310;52.198;5.422;2023-03-25T04:17:32;99772.22;;;7.36;100.00
64844;BME280;51310;52.198;5.422;2023-03-25T04:19:59;99773.47;;;7.31;100.00
64844;BME280;51310;52.198;5.422;2023-03-25T04:22:26;99775.00;;;7.29;100.00
64844;BME280;51310;52.198;5.422;2023-03-25T04:24:52;99778.50;;;7.21;100.00
64844;BME280;51310;52.198;5.422;2023-03-25T04:27:20;99794.75;;;7.21;100.00
64844;BME280;51310;52.198;5.422;2023-03-25T04:29:49;99795.84;;;7.14;100.00
64844;BME280;51310;52.198;5.422;2023-03-25T04:32:16;99796.66;;;7.05;100.00
64844;BME280;51310;52.198;5.422;2023-03-25T04:34:42;99799.09;;;6.94;100.00
64844;BME280;51310;52.198;5.422;2023-03-25T04:37:08;99791.66;;;6.78;100.00
64844;BME280;51310;52.198;5.422;2023-03-25T04:39:34;99811.88;;;6.58;100.00
64844;BME280;51310;52.198;5.422;2023-03-25T04:42:00;99809.91;;;6.64;100.00
64844;BME280;51310;52.198;5.422;2023-03-25T04:44:27;99804.75;;;6.73;100.00
64844;BME280;51310;52.198;5.422;2023-03-25T04:46:54;99797.66;;;6.79;100.00
64844;BME280;51310;52.198;5.422;2023-03-25T04:49:23;99805.25;;;6.60;100.00
64844;BME280;51310;52.198;5.422;2023-03-25T04:51:53;99803.63;;;6.43;100.00
64844;BME280;51310;52.198;5.422;2023-03-25T04:54:20;99805.00;;;6.40;100.00
64844;BME280;51310;52.198;5.422;2023-03-25T04:56:47;99799.59;;;6.36;100.00
64844;BME280;51310;52.198;5.422;2023-03-25T04:59:14;99790.13;;;6.35;100.00
64844;BME280;51310;52.198;5.422;2023-03-25T05:01:41;99801.69;;;6.41;100.00
64844;BME280;51310;52.198;5.422;2023-03-25T05:04:11;99805.28;;;6.43;100.00
64844;BME280;51310;52.198;5.422;2023-03-25T05:06:44;99806.63;;;6.48;100.00
64844;BME280;51310;52.198;5.422;2023-03-25T05:09:17;99800.78;;;6.49;100.00
64844;BME280;51310;52.198;5.422;2023-03-25T05:11:44;99807.97;;;6.53;100.00
64844;BME280;51310;52.198;5.422;2023-03-25T05:14:13;99801.34;;;6.55;100.00
64844;BME280;51310;52.198;5.422;2023-03-25T05:16:40;99803.47;;;6.59;100.00
64844;BME280;51310;52.198;5.422;2023-03-25T05:19:06;99802.38;;;6.66;100.00
64844;BME280;51310;52.198;5.422;2023-03-25T05:21:38;99794.09;;;6.68;100.00
64844;BME280;51310;52.198;5.422;2023-03-25T05:24:07;99807.03;;;6.70;100.00
64844;BME280;51310;52.198;5.422;2023-03-25T05:26:36;99801.16;;;6.71;100.00
64844;BME280;51310;52.198;5.422;2023-03-25T05:29:07;99795.56;;;6.75;100.00
64844;BME280;51310;52.198;5.422;2023-03-25T05:31:34;99804.00;;;6.74;100.00
64844;BME280;51310;52.198;5.422;2023-03-25T05:34:01;99824.59;;;6.75;100.00
64844;BME280;51310;52.198;5.422;2023-03-25T05:36:31;99822.66;;;6.73;100.00
64844;BME280;51310;52.198;5.422;2023-03-25T05:38:57;99822.66;;;6.73;100.00
64844;BME280;51310;52.198;5.422;2023-03-25T05:41:27;99825.38;;;6.74;100.00
64844;BME280;51310;52.198;5.422;2023-03-25T05:44:08;99822.97;;;6.76;100.00
64844;BME280;51310;52.198;5.422;2023-03-25T05:46:34;99829.09;;;6.78;100.00
64844;BME280;51310;52.198;5.422;2023-03-25T05:49:00;99814.22;;;6.83;100.00
64844;BME280;51310;52.198;5.422;2023-03-25T05:51:28;99814.34;;;6.84;100.00
64844;BME280;51310;52.198;5.422;2023-03-25T05:53:58;99818.38;;;6.91;100.00
64844;BME280;51310;52.198;5.422;2023-03-25T05:56:24;99819.28;;;6.91;100.00
64844;BME280;51310;52.198;5.422;2023-03-25T05:58:51;99821.06;;;6.92;100.00
64844;BME280;51310;52.198;5.422;2023-03-25T06:01:19;99818.53;;;6.92;100.00
64844;BME280;51310;52.198;5.422;2023-03-25T06:03:46;99820.47;;;6.95;100.00
64844;BME280;51310;52.198;5.422;2023-03-25T06:06:13;99832.81;;;6.90;100.00
64844;BME280;51310;52.198;5.422;2023-03-25T06:08:49;99829.66;;;6.93;100.00
64844;BME280;51310;52.198;5.422;2023-03-25T06:11:18;99827.66;;;6.99;100.00
64844;BME280;51310;52.198;5.422;2023-03-25T06:13:46;99828.72;;;7.01;100.00
64844;BME280;51310;52.198;5.422;2023-03-25T06:16:21;99832.16;;;7.02;100.00
64844;BME280;51310;52.198;5.422;2023-03-25T06:18:49;99828.72;;;7.01;100.00
64844;BME280;51310;52.198;5.422;2023-03-25T06:21:22;99825.22;;;7.09;100.00
64844;BME280;51310;52.198;5.422;2023-03-25T06:23:49;99823.53;;;7.18;100.00
64844;BME280;51310;52.198;5.422;2023-03-25T06:26:20;99827.69;;;7.27;100.00
64844;BME280;51310;52.198;5.422;2023-03-25T06:28:46;99815.63;;;7.34;100.00
64844;BME280;51310;52.198;5.422;2023-03-25T06:31:24;99822.47;;;7.44;100.00
64844;BME280;51310;52.198;5.422;2023-03-25T06:33:57;99822.16;;;7.50;100.00
64844;BME280;51310;52.198;5.422;2023-03-25T06:36:23;99825.47;;;7.49;100.00
64844;BME280;51310;52.198;5.422;2023-03-25T06:38:50;99827.03;;;7.38;100.00
64844;BME280;51310;52.198;5.422;2023-03-25T06:41:17;99826.38;;;7.22;100.00
64844;BME280;51310;52.198;5.422;2023-03-25T06:43:45;99840.72;;;7.11;100.00
64844;BME280;51310;52.198;5.422;2023-03-25T06:46:12;99843.88;;;7.08;100.00
64844;BME280;51310;52.198;5.422;2023-03-25T06:48:37;99853.25;;;6.99;100.00
64844;BME280;51310;52.198;5.422;2023-03-25T06:51:04;99857.50;;;6.90;100.00
64844;BME280;51310;52.198;5.422;2023-03-25T06:53:30;99852.56;;;6.83;100.00
64844;BME280;51310;52.198;5.422;2023-03-25T06:55:56;99855.88;;;6.82;100.00
64844;BME280;51310;52.198;5.422;2023-03-25T06:58:22;99861.44;;;6.77;100.00
64844;BME280;51310;52.198;5.422;2023-03-25T07:00:53;99862.50;;;6.80;100.00
64844;BME280;51310;52.198;5.422;2023-03-25T07:03:19;99860.09;;;6.81;100.00
64844;BME280;51310;52.198;5.422;2023-03-25T07:05:47;99864.16;;;6.79;100.00
64844;BME280;51310;52.198;5.422;2023-03-25T07:08:14;99857.53;;;6.81;100.00
64844;BME280;51310;52.198;5.422;2023-03-25T07:10:40;99859.63;;;6.85;100.00
64844;BME280;51310;52.198;5.422;2023-03-25T07:13:07;99868.19;;;6.86;100.00
64844;BME280;51310;52.198;5.422;2023-03-25T07:15:33;99859.28;;;6.91;100.00
64844;BME280;51310;52.198;5.422;2023-03-25T07:17:59;99859.75;;;6.95;100.00
64844;BME280;51310;52.198;5.422;2023-03-25T07:20:25;99865.31;;;7.00;100.00
64844;BME280;51310;52.198;5.422;2023-03-25T07:22:53;99857.75;;;7.02;100.00
64844;BME280;51310;52.198;5.422;2023-03-25T07:25:20;99847.97;;;7.06;100.00
64844;BME280;51310;52.198;5.422;2023-03-25T07:27:46;99859.53;;;7.11;100.00
64844;BME280;51310;52.198;5.422;2023-03-25T07:30:12;99856.34;;;7.14;100.00
64844;BME280;51310;52.198;5.422;2023-03-25T07:32:38;99865.22;;;7.17;100.00
64844;BME280;51310;52.198;5.422;2023-03-25T07:35:05;99866.41;;;7.21;100.00
64844;BME280;51310;52.198;5.422;2023-03-25T07:37:31;99863.84;;;7.21;100.00
64844;BME280;51310;52.198;5.422;2023-03-25T07:39:57;99861.53;;;7.33;100.00
64844;BME280;51310;52.198;5.422;2023-03-25T07:42:22;99866.00;;;7.44;100.00
64844;BME280;51310;52.198;5.422;2023-03-25T07:44:48;99869.28;;;7.52;100.00
64844;BME280;51310;52.198;5.422;2023-03-25T07:47:14;99860.81;;;7.53;100.00
64844;BME280;51310;52.198;5.422;2023-03-25T07:49:39;99866.56;;;7.50;100.00
64844;BME280;51310;52.198;5.422;2023-03-25T07:52:06;99868.72;;;7.46;100.00
64844;BME280;51310;52.198;5.422;2023-03-25T07:54:32;99865.38;;;7.47;100.00
64844;BME280;51310;52.198;5.422;2023-03-25T07:56:57;99870.19;;;7.52;100.00
64844;BME280;51310;52.198;5.422;2023-03-25T07:59:23;99872.13;;;7.55;100.00
64844;BME280;51310;52.198;5.422;2023-03-25T08:01:50;99869.56;;;7.55;100.00
64844;BME280;51310;52.198;5.422;2023-03-25T08:04:16;99878.13;;;7.55;100.00
64844;BME280;51310;52.198;5.422;2023-03-25T08:06:41;99867.00;;;7.55;100.00
64844;BME280;51310;52.198;5.422;2023-03-25T08:09:07;99876.59;;;7.57;100.00
64844;BME280;51310;52.198;5.422;2023-03-25T08:11:33;99864.13;;;7.60;100.00
64844;BME280;51310;52.198;5.422;2023-03-25T08:13:59;99875.09;;;7.59;100.00
64844;BME280;51310;52.198;5.422;2023-03-25T08:16:25;99883.09;;;7.63;100.00
64844;BME280;51310;52.198;5.422;2023-03-25T08:18:50;99884.41;;;7.68;100.00
64844;BME280;51310;52.198;5.422;2023-03-25T08:21:19;99894.16;;;7.72;100.00
64844;BME280;51310;52.198;5.422;2023-03-25T08:23:53;99888.50;;;7.85;100.00
64844;BME280;51310;52.198;5.422;2023-03-25T08:26:27;99888.16;;;7.90;100.00
64844;BME280;51310;52.198;5.422;2023-03-25T08:28:54;99891.63;;;7.91;100.00
64844;BME280;51310;52.198;5.422;2023-03-25T08:31:23;99889.81;;;7.90;100.00
64844;BME280;51310;52.198;5.422;2023-03-25T08:33:49;99885.66;;;7.81;100.00
64844;BME280;51310;52.198;5.422;2023-03-25T08:36:15;99892.44;;;7.81;100.00
64844;BME280;51310;52.198;5.422;2023-03-25T08:38:45;99884.50;;;7.78;100.00
64844;BME280;51310;52.198;5.422;2023-03-25T08:41:11;99891.69;;;7.82;100.00
64844;BME280;51310;52.198;5.422;2023-03-25T08:43:37;99892.59;;;7.83;100.00
64844;BME280;51310;52.198;5.422;2023-03-25T08:46:03;99883.38;;;7.85;100.00
64844;BME280;51310;52.198;5.422;2023-03-25T08:48:29;99889.00;;;7.80;100.00
64844;BME280;51310;52.198;5.422;2023-03-25T08:50:55;99890.50;;;7.78;100.00
64844;BME280;51310;52.198;5.422;2023-03-25T08:53:21;99889.13;;;7.82;100.00
64844;BME280;51310;52.198;5.422;2023-03-25T08:55:55;99895.34;;;7.94;100.00
64844;BME280;51310;52.198;5.422;2023-03-25T08:58:22;99900.09;;;8.09;100.00
64844;BME280;51310;52.198;5.422;2023-03-25T09:00:54;99891.72;;;8.20;100.00
64844;BME280;51310;52.198;5.422;2023-03-25T09:03:22;99896.34;;;8.24;100.00
64844;BME280;51310;52.198;5.422;2023-03-25T09:05:48;99903.19;;;8.43;100.00
64844;BME280;51310;52.198;5.422;2023-03-25T09:08:14;99899.63;;;8.51;100.00
64844;BME280;51310;52.198;5.422;2023-03-25T09:10:41;99895.19;;;8.58;100.00
64844;BME280;51310;52.198;5.422;2023-03-25T09:13:06;99890.59;;;8.65;100.00
64844;BME280;51310;52.198;5.422;2023-03-25T09:15:32;99889.97;;;8.67;100.00
64844;BME280;51310;52.198;5.422;2023-03-25T09:17:58;99884.50;;;8.73;100.00
64844;BME280;51310;52.198;5.422;2023-03-25T09:20:25;99893.72;;;8.71;100.00
64844;BME280;51310;52.198;5.422;2023-03-25T09:22:51;99893.75;;;8.81;100.00
64844;BME280;51310;52.198;5.422;2023-03-25T09:25:17;99885.94;;;8.90;100.00
64844;BME280;51310;52.198;5.422;2023-03-25T09:27:42;99895.50;;;9.01;100.00
64844;BME280;51310;52.198;5.422;2023-03-25T09:30:09;99906.47;;;9.19;100.00
64844;BME280;51310;52.198;5.422;2023-03-25T09:32:35;99900.22;;;9.36;100.00
64844;BME280;51310;52.198;5.422;2023-03-25T09:35:01;99892.28;;;9.43;100.00
64844;BME280;51310;52.198;5.422;2023-03-25T09:37:27;99892.38;;;9.34;100.00
64844;BME280;51310;52.198;5.422;2023-03-25T09:39:53;99897.88;;;9.29;100.00
64844;BME280;51310;52.198;5.422;2023-03-25T09:45:42;99904.03;;;9.31;100.00
64844;BME280;51310;52.198;5.422;2023-03-25T09:48:39;99898.25;;;9.23;100.00
64844;BME280;51310;52.198;5.422;2023-03-25T09:51:09;99901.59;;;9.22;100.00
64844;BME280;51310;52.198;5.422;2023-03-25T09:56:36;99913.03;;;9.26;100.00
64844;BME280;51310;52.198;5.422;2023-03-25T09:59:14;99893.56;;;9.38;100.00
64844;BME280;51310;52.198;5.422;2023-03-25T10:02:17;99905.06;;;9.33;100.00
64844;BME280;51310;52.198;5.422;2023-03-25T10:08:17;99919.31;;;9.19;100.00
64844;BME280;51310;52.198;5.422;2023-03-25T10:11:06;99913.06;;;9.36;100.00
64844;BME280;51310;52.198;5.422;2023-03-25T10:13:58;99912.69;;;9.52;100.00
64844;BME280;51310;52.198;5.422;2023-03-25T10:25:14;99921.31;;;9.42;100.00
64844;BME280;51310;52.198;5.422;2023-03-25T10:27:48;99925.22;;;9.28;100.00
64844;BME280;51310;52.198;5.422;2023-03-25T10:30:31;99923.34;;;9.36;100.00
64844;BME280;51310;52.198;5.422;2023-03-25T10:33:04;99919.13;;;9.47;100.00
64844;BME280;51310;52.198;5.422;2023-03-25T10:35:38;99923.91;;;9.62;100.00
64844;BME280;51310;52.198;5.422;2023-03-25T10:38:20;99927.00;;;9.79;100.00
64844;BME280;51310;52.198;5.422;2023-03-25T10:40:51;99917.75;;;9.91;100.00
64844;BME280;51310;52.198;5.422;2023-03-25T10:43:35;99914.94;;;9.98;100.00
64844;BME280;51310;52.198;5.422;2023-03-25T10:46:31;99918.78;;;9.93;100.00
64844;BME280;51310;52.198;5.422;2023-03-25T10:48:58;99923.81;;;9.92;100.00
64844;BME280;51310;52.198;5.422;2023-03-25T10:51:31;99939.22;;;9.81;100.00
64844;BME280;51310;52.198;5.422;2023-03-25T10:53:59;99929.94;;;9.73;100.00
64844;BME280;51310;52.198;5.422;2023-03-25T10:56:37;99930.59;;;9.71;100.00
64844;BME280;51310;52.198;5.422;2023-03-25T11:02:22;99949.22;;;9.68;100.00
64844;BME280;51310;52.198;5.422;2023-03-25T11:04:56;99938.44;;;9.72;100.00
64844;BME280;51310;52.198;5.422;2023-03-25T11:07:39;99957.75;;;9.98;100.00
64844;BME280;51310;52.198;5.422;2023-03-25T11:10:27;99947.84;;;10.02;100.00
64844;BME280;51310;52.198;5.422;2023-03-25T11:12:54;99957.75;;;9.98;100.00
64844;BME280;51310;52.198;5.422;2023-03-25T11:15:33;99949.25;;;9.99;100.00
64844;BME280;51310;52.198;5.422;2023-03-25T11:18:10;99949.38;;;9.90;100.00
64844;BME280;51310;52.198;5.422;2023-03-25T11:20:40;99954.41;;;9.39;100.00
64844;BME280;51310;52.198;5.422;2023-03-25T11:26:01;99950.38;;;9.61;100.00
64844;BME280;51310;52.198;5.422;2023-03-25T11:28:43;99945.66;;;10.17;100.00
64844;BME280;51310;52.198;5.422;2023-03-25T11:31:18;99952.88;;;10.52;100.00
64844;BME280;51310;52.198;5.422;2023-03-25T11:36:36;99957.50;;;10.56;100.00
64844;BME280;51310;52.198;5.422;2023-03-25T11:41:50;99953.63;;;10.51;100.00
64844;BME280;51310;52.198;5.422;2023-03-25T11:44:31;99950.00;;;10.59;100.00
64844;BME280;51310;52.198;5.422;2023-03-25T11:47:06;99951.28;;;10.64;100.00
64844;BME280;51310;52.198;5.422;2023-03-25T11:49:38;99957.56;;;10.68;100.00
64844;BME280;51310;52.198;5.422;2023-03-25T11:52:16;99958.22;;;10.76;100.00
64844;BME280;51310;52.198;5.422;2023-03-25T11:54:46;99957.44;;;10.77;100.00
64844;BME280;51310;52.198;5.422;2023-03-25T11:57:26;99940.19;;;10.76;100.00
64844;BME280;51310;52.198;5.422;2023-03-25T12:00:09;99959.28;;;10.57;100.00
64844;BME280;51310;52.198;5.422;2023-03-25T12:02:41;99968.41;;;10.54;100.00
64844;BME280;51310;52.198;5.422;2023-03-25T12:07:48;99920.97;;;10.30;100.00
64844;BME280;51310;52.198;5.422;2023-03-25T12:13:09;99975.56;;;9.65;100.00
64844;BME280;51310;52.198;5.422;2023-03-25T12:16:04;99957.91;;;9.50;100.00
64844;BME280;51310;52.198;5.422;2023-03-25T12:39:26;99948.63;;;10.42;100.00
64844;BME280;51310;52.198;5.422;2023-03-25T12:42:41;99942.72;;;10.33;100.00
64844;BME280;51310;52.198;5.422;2023-03-25T12:56:44;99953.38;;;10.48;100.00
64844;BME280;51310;52.198;5.422;2023-03-25T12:59:35;99950.53;;;10.55;100.00
64844;BME280;51310;52.198;5.422;2023-03-25T13:07:27;99967.59;;;10.75;100.00
64844;BME280;51310;52.198;5.422;2023-03-25T13:10:14;99947.84;;;10.96;100.00
64844;BME280;51310;52.198;5.422;2023-03-25T13:12:55;99952.00;;;11.16;100.00
64844;BME280;51310;52.198;5.422;2023-03-25T13:15:34;99960.41;;;11.03;100.00
64844;BME280;51310;52.198;5.422;2023-03-25T13:18:20;99955.97;;;11.23;100.00
64844;BME280;51310;52.198;5.422;2023-03-25T13:21:31;99968.13;;;11.14;100.00
64844;BME280;51310;52.198;5.422;2023-03-25T13:24:06;99974.63;;;10.88;100.00
64844;BME280;51310;52.198;5.422;2023-03-25T13:26:40;99980.41;;;10.96;100.00
64844;BME280;51310;52.198;5.422;2023-03-25T13:29:42;99984.31;;;10.80;100.00
64844;BME280;51310;52.198;5.422;2023-03-25T13:32:42;99967.44;;;11.26;100.00
64844;BME280;51310;52.198;5.422;2023-03-25T13:35:44;99983.25;;;11.31;100.00
64844;BME280;51310;52.198;5.422;2023-03-25T13:38:29;99966.00;;;10.98;100.00
64844;BME280;51310;52.198;5.422;2023-03-25T13:41:11;99979.56;;;10.75;100.00
64844;BME280;51310;52.198;5.422;2023-03-25T13:43:56;99980.50;;;10.55;100.00
64844;BME280;51310;52.198;5.422;2023-03-25T13:46:48;99980.50;;;10.55;100.00
64844;BME280;51310;52.198;5.422;2023-03-25T13:49:46;99992.09;;;10.50;100.00
64844;BME280;51310;52.198;5.422;2023-03-25T13:52:16;99986.97;;;10.50;100.00
64844;BME280;51310;52.198;5.422;2023-03-25T13:54:50;99978.31;;;10.70;100.00
64844;BME280;51310;52.198;5.422;2023-03-25T13:57:36;99973.91;;;10.68;100.00
64844;BME280;51310;52.198;5.422;2023-03-25T14:00:35;99994.00;;;10.62;100.00
64844;BME280;51310;52.198;5.422;2023-03-25T14:03:35;99995.00;;;10.75;100.00
64844;BME280;51310;52.198;5.422;2023-03-25T14:06:33;99993.50;;;10.56;100.00
64844;BME280;51310;52.198;5.422;2023-03-25T14:13:03;100031.25;;;9.46;100.00
64844;BME280;51310;52.198;5.422;2023-03-25T14:15:34;100030.06;;;9.42;100.00
64844;BME280;51310;52.198;5.422;2023-03-25T14:18:01;100036.09;;;9.43;100.00
64844;BME280;51310;52.198;5.422;2023-03-25T14:20:36;100027.69;;;9.25;100.00
64844;BME280;51310;52.198;5.422;2023-03-25T14:23:13;100032.34;;;9.10;100.00
64844;BME280;51310;52.198;5.422;2023-03-25T14:25:48;100033.84;;;9.27;100.00
64844;BME280;51310;52.198;5.422;2023-03-25T14:28:40;100040.72;;;9.47;100.00
64844;BME280;51310;52.198;5.422;2023-03-25T14:42:02;100036.47;;;10.57;100.00
64844;BME280;51310;52.198;5.422;2023-03-25T14:44:43;100035.69;;;10.68;100.00
64844;BME280;51310;52.198;5.422;2023-03-25T14:53:03;100021.91;;;10.58;100.00
64844;BME280;51310;52.198;5.422;2023-03-25T14:55:34;100031.84;;;10.53;100.00
64844;BME280;51310;52.198;5.422;2023-03-25T14:58:10;100027.72;;;10.45;100.00
64844;BME280;51310;52.198;5.422;2023-03-25T15:00:51;100044.06;;;10.45;100.00
64844;BME280;51310;52.198;5.422;2023-03-25T15:03:19;100065.06;;;10.00;100.00
64844;BME280;51310;52.198;5.422;2023-03-25T15:05:56;100056.94;;;9.46;100.00
64844;BME280;51310;52.198;5.422;2023-03-25T15:08:38;100048.31;;;8.97;100.00
64844;BME280;51310;52.198;5.422;2023-03-25T15:11:07;100035.84;;;8.73;100.00
64844;BME280;51310;52.198;5.422;2023-03-25T15:13:38;100040.41;;;8.67;100.00
64844;BME280;51310;52.198;5.422;2023-03-25T15:19:17;100157.34;;;8.28;100.00
64844;BME280;51310;52.198;5.422;2023-03-25T15:24:32;100180.44;;;6.54;100.00
64844;BME280;51310;52.198;5.422;2023-03-25T15:27:06;100177.38;;;6.41;100.00
64844;BME280;51310;52.198;5.422;2023-03-25T15:50:07;100186.59;;;6.14;100.00
64844;BME280;51310;52.198;5.422;2023-03-25T15:55:42;100200.31;;;6.23;100.00
64844;BME280;51310;52.198;5.422;2023-03-25T16:01:34;100184.09;;;6.73;100.00
64844;BME280;51310;52.198;5.422;2023-03-25T16:04:24;100181.72;;;6.84;100.00